VOZ328 YBBN-YMML
Flight info
| Callsign | VOZ328 |
|---|---|
| Flight time | 1h 59m |
| Altitude | 38000 |
| Route | SANEG Q35 DORSU H119 ARBEY |
| Aircraft | B38M/M-SADE3GHIJ4J7M3RWZ/LB1D1 |
Departure
| Time | 2026-05-05 04:10 |
|---|---|
| Airport | Brisbane International Airport (YBBN) |
Arrival
| Time | 2026-05-05 06:09 |
|---|---|
| Airport | Melbourne Airport (YMML) |
| Time | Latitude | Longitude | Altitude | Speed | Heading |
|---|---|---|---|---|---|
| 2026-05-05 04:03 | -27.38873 | 153.12082 | 21 ft | 0 kts | 42° |
| 2026-05-05 04:03 | -27.38856 | 153.12104 | 21 ft | 6 kts | 63° |
| 2026-05-05 04:03 | -27.38875 | 153.12171 | 22 ft | 14 kts | 125° |
| 2026-05-05 04:04 | -27.38853 | 153.12273 | 20 ft | 21 kts | 29° |
| 2026-05-05 04:04 | -27.38696 | 153.12364 | 20 ft | 28 kts | 26° |
| 2026-05-05 04:04 | -27.38539 | 153.12454 | 20 ft | 17 kts | 27° |
| 2026-05-05 04:04 | -27.38427 | 153.12516 | 21 ft | 19 kts | 28° |
| 2026-05-05 04:05 | -27.38307 | 153.12587 | 20 ft | 20 kts | 27° |
| 2026-05-05 04:05 | -27.38176 | 153.12661 | 20 ft | 22 kts | 26° |
| 2026-05-05 04:05 | -27.38038 | 153.12739 | 21 ft | 23 kts | 27° |
| 2026-05-05 04:05 | -27.37928 | 153.12724 | 20 ft | 18 kts | 300° |
| 2026-05-05 04:06 | -27.37866 | 153.12591 | 20 ft | 20 kts | 297° |
| 2026-05-05 04:06 | -27.37801 | 153.12446 | 20 ft | 21 kts | 297° |
| 2026-05-05 04:06 | -27.37731 | 153.12292 | 22 ft | 23 kts | 297° |
| 2026-05-05 04:06 | -27.37657 | 153.12128 | 20 ft | 24 kts | 296° |
| 2026-05-05 04:07 | -27.37579 | 153.11957 | 20 ft | 25 kts | 297° |
| 2026-05-05 04:07 | -27.37498 | 153.11780 | 20 ft | 26 kts | 297° |
| 2026-05-05 04:07 | -27.37415 | 153.11596 | 20 ft | 27 kts | 296° |
| 2026-05-05 04:07 | -27.37470 | 153.11488 | 21 ft | 17 kts | 208° |
| 2026-05-05 04:08 | -27.37580 | 153.11424 | 22 ft | 19 kts | 207° |
| 2026-05-05 04:08 | -27.37712 | 153.11349 | 22 ft | 27 kts | 207° |
| 2026-05-05 04:08 | -27.37880 | 153.11216 | 21 ft | 25 kts | 258° |
| 2026-05-05 04:08 | -27.37819 | 153.11051 | 20 ft | 24 kts | 297° |
| 2026-05-05 04:09 | -27.37745 | 153.11004 | 20 ft | 11 kts | 26° |
| 2026-05-05 04:09 | -27.37738 | 153.11008 | 21 ft | 1 kts | 28° |
| 2026-05-05 04:09 | -27.37629 | 153.11071 | 20 ft | 52 kts | 27° |
| 2026-05-05 04:09 | -27.37067 | 153.11391 | 21 ft | 126 kts | 27° |
| 2026-05-05 04:10 | -27.36131 | 153.11926 | 217 ft | 166 kts | 26° |
| 2026-05-05 04:10 | -27.35102 | 153.12502 | 1043 ft | 163 kts | 27° |
| 2026-05-05 04:10 | -27.33925 | 153.12775 | 1722 ft | 186 kts | 356° |
| 2026-05-05 04:10 | -27.32574 | 153.12584 | 2493 ft | 206 kts | 351° |
| 2026-05-05 04:11 | -27.31065 | 153.12312 | 3061 ft | 233 kts | 347° |
| 2026-05-05 04:11 | -27.29548 | 153.11479 | 3664 ft | 251 kts | 316° |
| 2026-05-05 04:11 | -27.28506 | 153.09858 | 4531 ft | 263 kts | 290° |
| 2026-05-05 04:11 | -27.28271 | 153.08510 | 4997 ft | 271 kts | 266° |
| 2026-05-05 04:12 | -27.29157 | 153.05964 | 6363 ft | 271 kts | 227° |
| 2026-05-05 04:12 | -27.30154 | 153.05064 | 6938 ft | 275 kts | 206° |
| 2026-05-05 04:12 | -27.31982 | 153.04597 | 7895 ft | 276 kts | 179° |
| 2026-05-05 04:12 | -27.33924 | 153.04667 | 8784 ft | 282 kts | 180° |
| 2026-05-05 04:13 | -27.35903 | 153.04671 | 9727 ft | 286 kts | 180° |
| 2026-05-05 04:13 | -27.38601 | 153.04659 | 10624 ft | 302 kts | 181° |
| 2026-05-05 04:13 | -27.40054 | 153.04635 | 10890 ft | 316 kts | 182° |
| 2026-05-05 04:13 | -27.42310 | 153.04591 | 11411 ft | 330 kts | 182° |
| 2026-05-05 04:14 | -27.44624 | 153.04554 | 12030 ft | 339 kts | 182° |
| 2026-05-05 04:14 | -27.47002 | 153.04532 | 12806 ft | 344 kts | 182° |
| 2026-05-05 04:14 | -27.49430 | 153.04513 | 13506 ft | 351 kts | 182° |
| 2026-05-05 04:14 | -27.51889 | 153.04501 | 14177 ft | 356 kts | 182° |
| 2026-05-05 04:15 | -27.54386 | 153.04487 | 14798 ft | 361 kts | 182° |
| 2026-05-05 04:15 | -27.56918 | 153.04477 | 15424 ft | 366 kts | 183° |
| 2026-05-05 04:15 | -27.59489 | 153.04466 | 16041 ft | 371 kts | 183° |
| 2026-05-05 04:15 | -27.62059 | 153.04457 | 16633 ft | 376 kts | 184° |
| 2026-05-05 04:16 | -27.64694 | 153.04448 | 17225 ft | 381 kts | 184° |
| 2026-05-05 04:16 | -27.67374 | 153.04439 | 17804 ft | 385 kts | 184° |
| 2026-05-05 04:16 | -27.70069 | 153.04430 | 18363 ft | 390 kts | 184° |
| 2026-05-05 04:16 | -27.72810 | 153.04421 | 18838 ft | 394 kts | 185° |
| 2026-05-05 04:17 | -27.75530 | 153.04413 | 19358 ft | 397 kts | 185° |
| 2026-05-05 04:17 | -27.78309 | 153.04405 | 19865 ft | 400 kts | 185° |
| 2026-05-05 04:17 | -27.81055 | 153.04025 | 20360 ft | 392 kts | 203° |
| 2026-05-05 04:17 | -27.83494 | 153.02753 | 20877 ft | 382 kts | 219° |
| 2026-05-05 04:18 | -27.85698 | 153.01122 | 21370 ft | 384 kts | 220° |
| 2026-05-05 04:18 | -27.87917 | 152.99428 | 21899 ft | 386 kts | 221° |
| 2026-05-05 04:18 | -27.90137 | 152.97698 | 22424 ft | 387 kts | 222° |
| 2026-05-05 04:18 | -27.92355 | 152.95947 | 22945 ft | 389 kts | 222° |
| 2026-05-05 04:19 | -27.94584 | 152.94173 | 23456 ft | 391 kts | 223° |
| 2026-05-05 04:19 | -27.96790 | 152.92411 | 23898 ft | 393 kts | 223° |
| 2026-05-05 04:19 | -27.99038 | 152.90615 | 24318 ft | 395 kts | 223° |
| 2026-05-05 04:19 | -28.01295 | 152.88808 | 24741 ft | 397 kts | 223° |
| 2026-05-05 04:20 | -28.03552 | 152.87001 | 25145 ft | 399 kts | 224° |
| 2026-05-05 04:20 | -28.05798 | 152.85201 | 25530 ft | 401 kts | 224° |
| 2026-05-05 04:20 | -28.08087 | 152.83366 | 25923 ft | 403 kts | 224° |
| 2026-05-05 04:20 | -28.10384 | 152.81524 | 26315 ft | 405 kts | 224° |
| 2026-05-05 04:21 | -28.12695 | 152.79669 | 26684 ft | 407 kts | 224° |
| 2026-05-05 04:21 | -28.14984 | 152.77830 | 27087 ft | 408 kts | 224° |
| 2026-05-05 04:21 | -28.17314 | 152.75958 | 27441 ft | 410 kts | 224° |
| 2026-05-05 04:21 | -28.19645 | 152.74084 | 27799 ft | 412 kts | 224° |
| 2026-05-05 04:22 | -28.21999 | 152.72192 | 28168 ft | 413 kts | 224° |
| 2026-05-05 04:22 | -28.24322 | 152.70322 | 28510 ft | 416 kts | 225° |
| 2026-05-05 04:22 | -28.26685 | 152.68418 | 28892 ft | 417 kts | 225° |
| 2026-05-05 04:22 | -28.29056 | 152.66508 | 29242 ft | 419 kts | 225° |
| 2026-05-05 04:23 | -28.31443 | 152.64583 | 29577 ft | 422 kts | 225° |
| 2026-05-05 04:23 | -28.33851 | 152.62642 | 29933 ft | 424 kts | 225° |
| 2026-05-05 04:23 | -28.36269 | 152.60690 | 30212 ft | 426 kts | 225° |
| 2026-05-05 04:23 | -28.38695 | 152.58731 | 30512 ft | 427 kts | 225° |
| 2026-05-05 04:24 | -28.41092 | 152.56795 | 30830 ft | 428 kts | 225° |
| 2026-05-05 04:24 | -28.43526 | 152.54827 | 31135 ft | 429 kts | 225° |
| 2026-05-05 04:24 | -28.45963 | 152.52855 | 31422 ft | 430 kts | 225° |
| 2026-05-05 04:25 | -28.50859 | 152.48891 | 32033 ft | 432 kts | 226° |
| 2026-05-05 04:25 | -28.53314 | 152.46902 | 32340 ft | 433 kts | 226° |
| 2026-05-05 04:25 | -28.55768 | 152.44913 | 32640 ft | 434 kts | 226° |
| 2026-05-05 04:25 | -28.58226 | 152.42919 | 32987 ft | 433 kts | 226° |
| 2026-05-05 04:26 | -28.60684 | 152.40925 | 33411 ft | 431 kts | 226° |
| 2026-05-05 04:26 | -28.63096 | 152.38965 | 33802 ft | 429 kts | 227° |
| 2026-05-05 04:26 | -28.65530 | 152.36988 | 34187 ft | 427 kts | 227° |
| 2026-05-05 04:26 | -28.67946 | 152.35023 | 34531 ft | 426 kts | 227° |
| 2026-05-05 04:27 | -28.70360 | 152.33058 | 34836 ft | 424 kts | 227° |
| 2026-05-05 04:27 | -28.72730 | 152.31129 | 35110 ft | 424 kts | 227° |
| 2026-05-05 04:27 | -28.75131 | 152.29174 | 35352 ft | 424 kts | 227° |
| 2026-05-05 04:27 | -28.77529 | 152.27219 | 35639 ft | 423 kts | 228° |
| 2026-05-05 04:28 | -28.79923 | 152.25267 | 35925 ft | 422 kts | 228° |
| 2026-05-05 04:28 | -28.82314 | 152.23316 | 36166 ft | 422 kts | 228° |
| 2026-05-05 04:28 | -28.84703 | 152.21365 | 36402 ft | 421 kts | 228° |
| 2026-05-05 04:28 | -28.87092 | 152.19413 | 36593 ft | 422 kts | 228° |
| 2026-05-05 04:29 | -28.89449 | 152.17487 | 36828 ft | 421 kts | 228° |
| 2026-05-05 04:29 | -28.91835 | 152.15535 | 37049 ft | 420 kts | 228° |
| 2026-05-05 04:29 | -28.94216 | 152.13587 | 37269 ft | 420 kts | 228° |
| 2026-05-05 04:29 | -28.96593 | 152.11640 | 37488 ft | 419 kts | 228° |
| 2026-05-05 04:30 | -28.98962 | 152.09700 | 37680 ft | 419 kts | 229° |
| 2026-05-05 04:30 | -29.01301 | 152.07782 | 37870 ft | 418 kts | 229° |
| 2026-05-05 04:30 | -29.03666 | 152.05842 | 38050 ft | 418 kts | 229° |
| 2026-05-05 04:31 | -29.08409 | 152.01949 | 38087 ft | 419 kts | 229° |
| 2026-05-05 04:31 | -29.13149 | 151.98054 | 38094 ft | 419 kts | 229° |
| 2026-05-05 04:32 | -29.17854 | 151.94183 | 38101 ft | 419 kts | 229° |
| 2026-05-05 04:32 | -29.22583 | 151.90287 | 38116 ft | 417 kts | 229° |
| 2026-05-05 04:33 | -29.27308 | 151.86390 | 38101 ft | 418 kts | 229° |
| 2026-05-05 04:33 | -29.32039 | 151.82483 | 38109 ft | 419 kts | 229° |
| 2026-05-05 04:34 | -29.36741 | 151.78598 | 38105 ft | 418 kts | 229° |
| 2026-05-05 04:34 | -29.41478 | 151.74678 | 38104 ft | 418 kts | 229° |
| 2026-05-05 04:35 | -29.46163 | 151.70797 | 38104 ft | 418 kts | 229° |
| 2026-05-05 04:35 | -29.50897 | 151.66880 | 38098 ft | 420 kts | 227° |
| 2026-05-05 04:36 | -29.56037 | 151.63425 | 38101 ft | 429 kts | 223° |
| 2026-05-05 04:36 | -29.61202 | 151.60065 | 38102 ft | 429 kts | 223° |
| 2026-05-05 04:37 | -29.66410 | 151.56683 | 38103 ft | 429 kts | 223° |
| 2026-05-05 04:37 | -29.71612 | 151.53301 | 38107 ft | 429 kts | 223° |
| 2026-05-05 04:38 | -29.76785 | 151.49935 | 38105 ft | 429 kts | 223° |
| 2026-05-05 04:38 | -29.81987 | 151.46544 | 38103 ft | 429 kts | 223° |
| 2026-05-05 04:39 | -29.87184 | 151.43153 | 38106 ft | 429 kts | 223° |
| 2026-05-05 04:39 | -29.92357 | 151.39774 | 38103 ft | 429 kts | 223° |
| 2026-05-05 04:40 | -29.97560 | 151.36372 | 38113 ft | 429 kts | 223° |
| 2026-05-05 04:40 | -30.02722 | 151.32992 | 38108 ft | 429 kts | 223° |
| 2026-05-05 04:41 | -30.07906 | 151.29593 | 38101 ft | 428 kts | 223° |
| 2026-05-05 04:41 | -30.13097 | 151.26185 | 38101 ft | 428 kts | 223° |
| 2026-05-05 04:42 | -30.18248 | 151.22801 | 38101 ft | 428 kts | 223° |
| 2026-05-05 04:42 | -30.23430 | 151.19390 | 38103 ft | 427 kts | 223° |
| 2026-05-05 04:43 | -30.28568 | 151.16005 | 38104 ft | 427 kts | 223° |
| 2026-05-05 04:43 | -30.33726 | 151.12604 | 38109 ft | 426 kts | 223° |
| 2026-05-05 04:44 | -30.38881 | 151.09199 | 38102 ft | 425 kts | 223° |
| 2026-05-05 04:44 | -30.44023 | 151.05798 | 38107 ft | 425 kts | 223° |
| 2026-05-05 04:45 | -30.49138 | 151.02413 | 38107 ft | 424 kts | 223° |
| 2026-05-05 04:45 | -30.54252 | 150.99023 | 38106 ft | 424 kts | 223° |
| 2026-05-05 04:46 | -30.59381 | 150.95618 | 38123 ft | 424 kts | 223° |
| 2026-05-05 04:46 | -30.64502 | 150.92216 | 38116 ft | 423 kts | 223° |
| 2026-05-05 04:47 | -30.69611 | 150.88817 | 38122 ft | 423 kts | 223° |
| 2026-05-05 04:47 | -30.74690 | 150.85434 | 38120 ft | 422 kts | 223° |
| 2026-05-05 04:48 | -30.79800 | 150.82026 | 38129 ft | 422 kts | 223° |
| 2026-05-05 04:48 | -30.84912 | 150.78612 | 38133 ft | 422 kts | 224° |
| 2026-05-05 04:49 | -30.89974 | 150.75228 | 38136 ft | 422 kts | 224° |
| 2026-05-05 04:49 | -30.95075 | 150.71812 | 38131 ft | 422 kts | 224° |
| 2026-05-05 04:50 | -31.00168 | 150.68400 | 38137 ft | 422 kts | 224° |
| 2026-05-05 04:50 | -31.05269 | 150.64976 | 38132 ft | 421 kts | 224° |
| 2026-05-05 04:50 | -31.07540 | 150.63032 | 38127 ft | 399 kts | 236° |
| 2026-05-05 04:51 | -31.09622 | 150.60862 | 38115 ft | 403 kts | 234° |
| 2026-05-05 04:51 | -31.13836 | 150.56529 | 38132 ft | 405 kts | 234° |
| 2026-05-05 04:52 | -31.18084 | 150.52114 | 38128 ft | 410 kts | 234° |
| 2026-05-05 04:52 | -31.22350 | 150.47669 | 38128 ft | 415 kts | 234° |
| 2026-05-05 04:53 | -31.26662 | 150.43170 | 38124 ft | 415 kts | 234° |
| 2026-05-05 04:53 | -31.30972 | 150.38666 | 38126 ft | 414 kts | 234° |
| 2026-05-05 04:54 | -31.35245 | 150.34196 | 38123 ft | 414 kts | 234° |
| 2026-05-05 04:54 | -31.39540 | 150.29697 | 38126 ft | 414 kts | 234° |
| 2026-05-05 04:55 | -31.43814 | 150.25215 | 38126 ft | 414 kts | 234° |
| 2026-05-05 04:55 | -31.48113 | 150.20701 | 38120 ft | 414 kts | 234° |
| 2026-05-05 04:56 | -31.52395 | 150.16197 | 38123 ft | 414 kts | 235° |
| 2026-05-05 04:56 | -31.56676 | 150.11690 | 38140 ft | 413 kts | 235° |
| 2026-05-05 04:57 | -31.60939 | 150.07196 | 38152 ft | 413 kts | 235° |
| 2026-05-05 04:57 | -31.65216 | 150.02681 | 38121 ft | 413 kts | 235° |
| 2026-05-05 04:58 | -31.68774 | 149.98921 | 38133 ft | 414 kts | 235° |
| 2026-05-05 04:58 | -31.73779 | 149.93625 | 38127 ft | 414 kts | 235° |
| 2026-05-05 04:59 | -31.78043 | 149.89106 | 38127 ft | 415 kts | 235° |
| 2026-05-05 04:59 | -31.81617 | 149.85316 | 38147 ft | 416 kts | 235° |
| 2026-05-05 05:00 | -31.86375 | 149.79841 | 38145 ft | 408 kts | 239° |
| 2026-05-05 05:00 | -31.89684 | 149.75826 | 38141 ft | 410 kts | 238° |
| 2026-05-05 05:01 | -31.93672 | 149.71014 | 38134 ft | 409 kts | 238° |
| 2026-05-05 05:01 | -31.97623 | 149.66245 | 38141 ft | 409 kts | 238° |
| 2026-05-05 05:02 | -32.01612 | 149.61425 | 38135 ft | 409 kts | 239° |
| 2026-05-05 05:02 | -32.05582 | 149.56621 | 38135 ft | 409 kts | 239° |
| 2026-05-05 05:03 | -32.09536 | 149.51831 | 38141 ft | 409 kts | 239° |
| 2026-05-05 05:03 | -32.13518 | 149.47000 | 38135 ft | 409 kts | 239° |
| 2026-05-05 05:04 | -32.17465 | 149.42205 | 38138 ft | 409 kts | 239° |
| 2026-05-05 05:04 | -32.21442 | 149.37366 | 38138 ft | 409 kts | 239° |
| 2026-05-05 05:05 | -32.25391 | 149.32556 | 38132 ft | 410 kts | 239° |
| 2026-05-05 05:05 | -32.29373 | 149.27700 | 38136 ft | 410 kts | 239° |
| 2026-05-05 05:06 | -32.33325 | 149.22874 | 38132 ft | 411 kts | 239° |
| 2026-05-05 05:06 | -32.37309 | 149.18000 | 38136 ft | 411 kts | 239° |
| 2026-05-05 05:07 | -32.41290 | 149.13108 | 38141 ft | 413 kts | 238° |
| 2026-05-05 05:07 | -32.45289 | 149.08191 | 38154 ft | 415 kts | 238° |
| 2026-05-05 05:08 | -32.49277 | 149.03280 | 38142 ft | 415 kts | 238° |
| 2026-05-05 05:08 | -32.53291 | 148.98331 | 38145 ft | 416 kts | 238° |
| 2026-05-05 05:09 | -32.57295 | 148.93388 | 38148 ft | 417 kts | 238° |
| 2026-05-05 05:09 | -32.61326 | 148.88404 | 38147 ft | 418 kts | 238° |
| 2026-05-05 05:10 | -32.65328 | 148.83449 | 38150 ft | 418 kts | 238° |
| 2026-05-05 05:10 | -32.69359 | 148.78451 | 38161 ft | 419 kts | 238° |
| 2026-05-05 05:11 | -32.73400 | 148.73434 | 38155 ft | 420 kts | 238° |
| 2026-05-05 05:11 | -32.77428 | 148.68427 | 38163 ft | 421 kts | 238° |
| 2026-05-05 05:12 | -32.81485 | 148.63375 | 38162 ft | 422 kts | 237° |
| 2026-05-05 05:12 | -32.85517 | 148.58348 | 38157 ft | 423 kts | 237° |
| 2026-05-05 05:13 | -32.89588 | 148.53265 | 38166 ft | 424 kts | 237° |
| 2026-05-05 05:13 | -32.93662 | 148.48171 | 38166 ft | 425 kts | 237° |
| 2026-05-05 05:14 | -32.97746 | 148.43057 | 38176 ft | 426 kts | 237° |
| 2026-05-05 05:14 | -33.01820 | 148.37949 | 38175 ft | 427 kts | 237° |
| 2026-05-05 05:15 | -33.05916 | 148.32805 | 38182 ft | 428 kts | 237° |
| 2026-05-05 05:15 | -33.10024 | 148.27642 | 38183 ft | 428 kts | 237° |
| 2026-05-05 05:16 | -33.14319 | 148.22643 | 38177 ft | 441 kts | 227° |
| 2026-05-05 05:16 | -33.19155 | 148.18183 | 38190 ft | 442 kts | 228° |
| 2026-05-05 05:17 | -33.24032 | 148.13678 | 38183 ft | 443 kts | 228° |
| 2026-05-05 05:17 | -33.28923 | 148.09158 | 38192 ft | 443 kts | 228° |
| 2026-05-05 05:18 | -33.33774 | 148.04669 | 38196 ft | 444 kts | 228° |
| 2026-05-05 05:18 | -33.38609 | 148.00188 | 38198 ft | 434 kts | 228° |
| 2026-05-05 05:19 | -33.43372 | 147.95768 | 38201 ft | 433 kts | 228° |
| 2026-05-05 05:19 | -33.48112 | 147.91361 | 38201 ft | 433 kts | 228° |
| 2026-05-05 05:20 | -33.52883 | 147.86921 | 38200 ft | 433 kts | 228° |
| 2026-05-05 05:20 | -33.57650 | 147.82477 | 38200 ft | 434 kts | 227° |
| 2026-05-05 05:21 | -33.62394 | 147.78049 | 38207 ft | 434 kts | 227° |
| 2026-05-05 05:21 | -33.67170 | 147.73585 | 38208 ft | 435 kts | 227° |
| 2026-05-05 05:22 | -33.71922 | 147.69136 | 38202 ft | 435 kts | 227° |
| 2026-05-05 05:22 | -33.76705 | 147.64652 | 38203 ft | 435 kts | 227° |
| 2026-05-05 05:23 | -33.81460 | 147.60188 | 38205 ft | 435 kts | 227° |
| 2026-05-05 05:23 | -33.86215 | 147.55717 | 38206 ft | 435 kts | 227° |
| 2026-05-05 05:24 | -33.90996 | 147.51215 | 38204 ft | 436 kts | 227° |
| 2026-05-05 05:24 | -33.95779 | 147.46705 | 38206 ft | 436 kts | 227° |
| 2026-05-05 05:25 | -34.00557 | 147.42193 | 38207 ft | 436 kts | 227° |
| 2026-05-05 05:25 | -34.05304 | 147.37703 | 38204 ft | 436 kts | 227° |
| 2026-05-05 05:26 | -34.10090 | 147.33170 | 38208 ft | 437 kts | 227° |
| 2026-05-05 05:26 | -34.14880 | 147.28627 | 38208 ft | 437 kts | 227° |
| 2026-05-05 05:27 | -34.19633 | 147.24113 | 38197 ft | 437 kts | 227° |
| 2026-05-05 05:27 | -34.26816 | 147.17276 | 38205 ft | 438 kts | 227° |
| 2026-05-05 05:28 | -34.31584 | 147.12729 | 38206 ft | 438 kts | 227° |
| 2026-05-05 05:28 | -34.36386 | 147.08145 | 38208 ft | 438 kts | 227° |
| 2026-05-05 05:29 | -34.41183 | 147.03557 | 38218 ft | 439 kts | 227° |
| 2026-05-05 05:29 | -34.45971 | 146.98971 | 38214 ft | 439 kts | 227° |
| 2026-05-05 05:30 | -34.50735 | 146.94402 | 38214 ft | 439 kts | 227° |
| 2026-05-05 05:30 | -34.55535 | 146.89790 | 38215 ft | 440 kts | 226° |
| 2026-05-05 05:31 | -34.60334 | 146.85173 | 38212 ft | 440 kts | 226° |
| 2026-05-05 05:31 | -34.65140 | 146.80543 | 38212 ft | 440 kts | 226° |
| 2026-05-05 05:32 | -34.69912 | 146.75937 | 38213 ft | 440 kts | 226° |
| 2026-05-05 05:32 | -34.74717 | 146.71293 | 38216 ft | 440 kts | 226° |
| 2026-05-05 05:33 | -34.79529 | 146.66635 | 38213 ft | 441 kts | 226° |
| 2026-05-05 05:33 | -34.84311 | 146.62000 | 38215 ft | 441 kts | 226° |
| 2026-05-05 05:34 | -34.89122 | 146.57329 | 38212 ft | 441 kts | 226° |
| 2026-05-05 05:34 | -34.93920 | 146.52662 | 38207 ft | 441 kts | 226° |
| 2026-05-05 05:35 | -34.98687 | 146.48020 | 38210 ft | 441 kts | 226° |
| 2026-05-05 05:35 | -35.03498 | 146.43326 | 38214 ft | 441 kts | 226° |
| 2026-05-05 05:36 | -35.08260 | 146.38674 | 38217 ft | 441 kts | 226° |
| 2026-05-05 05:36 | -35.13070 | 146.33968 | 38212 ft | 441 kts | 226° |
| 2026-05-05 05:37 | -35.17833 | 146.29296 | 38210 ft | 439 kts | 224° |
| 2026-05-05 05:37 | -35.22584 | 146.24636 | 38213 ft | 436 kts | 224° |
| 2026-05-05 05:38 | -35.27325 | 146.19975 | 38217 ft | 436 kts | 224° |
| 2026-05-05 05:38 | -35.32022 | 146.15351 | 38211 ft | 435 kts | 224° |
| 2026-05-05 05:39 | -35.36739 | 146.10700 | 38207 ft | 435 kts | 224° |
| 2026-05-05 05:39 | -35.41460 | 146.06039 | 38206 ft | 435 kts | 224° |
| 2026-05-05 05:40 | -35.46174 | 146.01377 | 38207 ft | 435 kts | 224° |
| 2026-05-05 05:40 | -35.50857 | 145.96740 | 38207 ft | 434 kts | 224° |
| 2026-05-05 05:41 | -35.55567 | 145.92067 | 38207 ft | 434 kts | 224° |
| 2026-05-05 05:41 | -35.60271 | 145.87396 | 38205 ft | 434 kts | 224° |
| 2026-05-05 05:42 | -35.64941 | 145.82739 | 38205 ft | 434 kts | 224° |
| 2026-05-05 05:42 | -35.69641 | 145.78053 | 38206 ft | 434 kts | 224° |
| 2026-05-05 05:43 | -35.74334 | 145.73366 | 38206 ft | 434 kts | 224° |
| 2026-05-05 05:43 | -35.79011 | 145.68690 | 38204 ft | 434 kts | 223° |
| 2026-05-05 05:44 | -35.83715 | 145.63978 | 38203 ft | 435 kts | 223° |
| 2026-05-05 05:44 | -35.88395 | 145.59283 | 38198 ft | 435 kts | 223° |
| 2026-05-05 05:45 | -35.93079 | 145.54577 | 38197 ft | 431 kts | 223° |
| 2026-05-05 05:45 | -35.97694 | 145.49932 | 38198 ft | 431 kts | 223° |
| 2026-05-05 05:46 | -36.00014 | 145.47595 | 37561 ft | 431 kts | 223° |
| 2026-05-05 05:46 | -36.02376 | 145.45213 | 36322 ft | 444 kts | 223° |
| 2026-05-05 05:46 | -36.03969 | 145.43607 | 35863 ft | 443 kts | 222° |
| 2026-05-05 05:46 | -36.06333 | 145.41220 | 35559 ft | 433 kts | 222° |
| 2026-05-05 05:47 | -36.09423 | 145.38097 | 34777 ft | 425 kts | 222° |
| 2026-05-05 05:47 | -36.11707 | 145.35787 | 34002 ft | 420 kts | 221° |
| 2026-05-05 05:47 | -36.13949 | 145.33517 | 33247 ft | 412 kts | 221° |
| 2026-05-05 05:47 | -36.16121 | 145.31317 | 32540 ft | 405 kts | 221° |
| 2026-05-05 05:48 | -36.18288 | 145.29119 | 31847 ft | 398 kts | 220° |
| 2026-05-05 05:48 | -36.19697 | 145.27690 | 31402 ft | 393 kts | 220° |
| 2026-05-05 05:48 | -36.22500 | 145.24844 | 30532 ft | 384 kts | 220° |
| 2026-05-05 05:48 | -36.23867 | 145.23455 | 30112 ft | 380 kts | 220° |
| 2026-05-05 05:49 | -36.25894 | 145.21395 | 29418 ft | 374 kts | 220° |
| 2026-05-05 05:49 | -36.27890 | 145.19364 | 28771 ft | 367 kts | 219° |
| 2026-05-05 05:49 | -36.30476 | 145.16731 | 27946 ft | 359 kts | 219° |
| 2026-05-05 05:49 | -36.32398 | 145.14773 | 27258 ft | 355 kts | 219° |
| 2026-05-05 05:50 | -36.33662 | 145.13485 | 26800 ft | 354 kts | 219° |
| 2026-05-05 05:50 | -36.35549 | 145.11559 | 26278 ft | 349 kts | 219° |
| 2026-05-05 05:50 | -36.37423 | 145.09648 | 25829 ft | 348 kts | 219° |
| 2026-05-05 05:50 | -36.39895 | 145.07123 | 25248 ft | 346 kts | 219° |
| 2026-05-05 05:51 | -36.41744 | 145.05233 | 24817 ft | 344 kts | 219° |
| 2026-05-05 05:51 | -36.42992 | 145.03956 | 24530 ft | 342 kts | 219° |
| 2026-05-05 05:51 | -36.44826 | 145.02080 | 24108 ft | 340 kts | 219° |
| 2026-05-05 05:51 | -36.46626 | 145.00237 | 23681 ft | 338 kts | 218° |
| 2026-05-05 05:52 | -36.48435 | 144.98383 | 23201 ft | 336 kts | 219° |
| 2026-05-05 05:52 | -36.50242 | 144.96531 | 22776 ft | 334 kts | 219° |
| 2026-05-05 05:52 | -36.52039 | 144.94687 | 22367 ft | 332 kts | 219° |
| 2026-05-05 05:52 | -36.53800 | 144.92880 | 21979 ft | 331 kts | 219° |
| 2026-05-05 05:53 | -36.55580 | 144.91052 | 21586 ft | 329 kts | 219° |
| 2026-05-05 05:53 | -36.57341 | 144.89243 | 21196 ft | 328 kts | 219° |
| 2026-05-05 05:53 | -36.59108 | 144.87426 | 20820 ft | 328 kts | 219° |
| 2026-05-05 05:53 | -36.60862 | 144.85623 | 20440 ft | 327 kts | 219° |
| 2026-05-05 05:54 | -36.62595 | 144.83839 | 20070 ft | 327 kts | 219° |
| 2026-05-05 05:54 | -36.64344 | 144.82038 | 19695 ft | 326 kts | 219° |
| 2026-05-05 05:54 | -36.66101 | 144.80226 | 19314 ft | 326 kts | 219° |
| 2026-05-05 05:54 | -36.67853 | 144.78418 | 18920 ft | 326 kts | 219° |
| 2026-05-05 05:55 | -36.69578 | 144.76637 | 18578 ft | 325 kts | 219° |
| 2026-05-05 05:55 | -36.71325 | 144.74832 | 18179 ft | 324 kts | 219° |
| 2026-05-05 05:55 | -36.73062 | 144.73037 | 17800 ft | 323 kts | 219° |
| 2026-05-05 05:55 | -36.74767 | 144.71275 | 17442 ft | 320 kts | 219° |
| 2026-05-05 05:56 | -36.76480 | 144.69502 | 17086 ft | 318 kts | 219° |
| 2026-05-05 05:56 | -36.78175 | 144.67748 | 16739 ft | 316 kts | 219° |
| 2026-05-05 05:56 | -36.80033 | 144.66301 | 16305 ft | 315 kts | 200° |
| 2026-05-05 05:56 | -36.82176 | 144.65827 | 15965 ft | 314 kts | 180° |
| 2026-05-05 05:57 | -36.84319 | 144.66123 | 15644 ft | 312 kts | 174° |
| 2026-05-05 05:57 | -36.86467 | 144.66528 | 15307 ft | 311 kts | 173° |
| 2026-05-05 05:57 | -36.88599 | 144.66960 | 14960 ft | 309 kts | 173° |
| 2026-05-05 05:57 | -36.90727 | 144.67407 | 14628 ft | 309 kts | 172° |
| 2026-05-05 05:58 | -36.92870 | 144.67867 | 14273 ft | 319 kts | 172° |
| 2026-05-05 05:58 | -36.95086 | 144.68350 | 13897 ft | 325 kts | 172° |
| 2026-05-05 05:58 | -36.97333 | 144.68845 | 13501 ft | 328 kts | 172° |
| 2026-05-05 05:58 | -36.99550 | 144.69335 | 13134 ft | 327 kts | 172° |
| 2026-05-05 05:59 | -37.01798 | 144.69832 | 12772 ft | 325 kts | 172° |
| 2026-05-05 05:59 | -37.04016 | 144.70323 | 12419 ft | 322 kts | 172° |
| 2026-05-05 05:59 | -37.06224 | 144.70812 | 12060 ft | 319 kts | 172° |
| 2026-05-05 05:59 | -37.08404 | 144.71295 | 11705 ft | 316 kts | 172° |
| 2026-05-05 06:00 | -37.10538 | 144.71769 | 11360 ft | 314 kts | 172° |
| 2026-05-05 06:00 | -37.12676 | 144.72243 | 11108 ft | 308 kts | 172° |
| 2026-05-05 06:00 | -37.14760 | 144.72706 | 10967 ft | 299 kts | 172° |
| 2026-05-05 06:00 | -37.16775 | 144.73165 | 10819 ft | 290 kts | 171° |
| 2026-05-05 06:01 | -37.18705 | 144.73680 | 10672 ft | 282 kts | 171° |
| 2026-05-05 06:01 | -37.20600 | 144.74186 | 10546 ft | 273 kts | 171° |
| 2026-05-05 06:01 | -37.22438 | 144.74673 | 10409 ft | 264 kts | 171° |
| 2026-05-05 06:01 | -37.24189 | 144.75137 | 10268 ft | 257 kts | 171° |
| 2026-05-05 06:02 | -37.25948 | 144.75602 | 9935 ft | 260 kts | 171° |
| 2026-05-05 06:02 | -37.27738 | 144.76076 | 9545 ft | 265 kts | 171° |
| 2026-05-05 06:02 | -37.29534 | 144.76551 | 9359 ft | 259 kts | 171° |
| 2026-05-05 06:02 | -37.31256 | 144.77007 | 9209 ft | 245 kts | 171° |
| 2026-05-05 06:03 | -37.32877 | 144.77434 | 9043 ft | 231 kts | 172° |
| 2026-05-05 06:03 | -37.34445 | 144.77729 | 8548 ft | 233 kts | 175° |
| 2026-05-05 06:03 | -37.36013 | 144.78004 | 8030 ft | 233 kts | 175° |
| 2026-05-05 06:03 | -37.37693 | 144.78304 | 7411 ft | 240 kts | 174° |
| 2026-05-05 06:04 | -37.39386 | 144.78609 | 6778 ft | 248 kts | 174° |
| 2026-05-05 06:04 | -37.41089 | 144.78919 | 6099 ft | 252 kts | 174° |
| 2026-05-05 06:04 | -37.42834 | 144.79226 | 5374 ft | 252 kts | 174° |
| 2026-05-05 06:04 | -37.44572 | 144.79532 | 4695 ft | 250 kts | 174° |
| 2026-05-05 06:05 | -37.46288 | 144.79840 | 4091 ft | 247 kts | 173° |
| 2026-05-05 06:05 | -37.47941 | 144.80167 | 3746 ft | 233 kts | 173° |
| 2026-05-05 06:05 | -37.49463 | 144.80468 | 3472 ft | 210 kts | 173° |
| 2026-05-05 06:05 | -37.50835 | 144.80738 | 3200 ft | 190 kts | 174° |
| 2026-05-05 06:06 | -37.52044 | 144.80977 | 3050 ft | 165 kts | 174° |
| 2026-05-05 06:06 | -37.53175 | 144.81200 | 3009 ft | 164 kts | 174° |
| 2026-05-05 06:06 | -37.54307 | 144.81431 | 2788 ft | 164 kts | 174° |
| 2026-05-05 06:06 | -37.55433 | 144.81649 | 2520 ft | 163 kts | 174° |
| 2026-05-05 06:07 | -37.56549 | 144.81856 | 2275 ft | 161 kts | 175° |
| 2026-05-05 06:07 | -37.57657 | 144.82064 | 2030 ft | 160 kts | 175° |
| 2026-05-05 06:07 | -37.58748 | 144.82266 | 1819 ft | 160 kts | 174° |
| 2026-05-05 06:07 | -37.59802 | 144.82465 | 1617 ft | 148 kts | 175° |
| 2026-05-05 06:08 | -37.60815 | 144.82653 | 1385 ft | 146 kts | 174° |
| 2026-05-05 06:08 | -37.61823 | 144.82840 | 1185 ft | 146 kts | 176° |
| 2026-05-05 06:08 | -37.62834 | 144.83014 | 998 ft | 150 kts | 176° |
| 2026-05-05 06:08 | -37.63855 | 144.83231 | 809 ft | 152 kts | 179° |
| 2026-05-05 06:09 | -37.64903 | 144.83414 | 592 ft | 149 kts | 175° |
| 2026-05-05 06:09 | -37.65884 | 144.83596 | 428 ft | 132 kts | 173° |
| 2026-05-05 06:09 | -37.66672 | 144.83744 | 399 ft | 88 kts | 171° |
| 2026-05-05 06:09 | -37.67020 | 144.83852 | 387 ft | 23 kts | 153° |
| 2026-05-05 06:10 | -37.67067 | 144.83890 | 386 ft | 9 kts | 145° |
| 2026-05-05 06:10 | -37.67130 | 144.83954 | 384 ft | 15 kts | 141° |
| 2026-05-05 06:10 | -37.67221 | 144.84085 | 381 ft | 25 kts | 102° |
| 2026-05-05 06:10 | -37.67206 | 144.84331 | 385 ft | 31 kts | 83° |
| 2026-05-05 06:11 | -37.67104 | 144.84452 | 389 ft | 22 kts | 348° |
| 2026-05-05 06:11 | -37.67017 | 144.84509 | 392 ft | 10 kts | 83° |
| 2026-05-05 06:11 | -37.67010 | 144.84601 | 393 ft | 9 kts | 98° |
| 2026-05-05 06:11 | -37.67044 | 144.84620 | 393 ft | 7 kts | 174° |
| 2026-05-05 06:12 | -37.67058 | 144.84622 | 392 ft | 3 kts | 171° |
| 2026-05-05 06:12 | -37.67066 | 144.84624 | 392 ft | 0 kts | 172° |
| 2026-05-05 06:12 | -37.67069 | 144.84624 | 392 ft | 0 kts | 172° |